createdAt,value
2022-12-02T01:17:57.149Z,15.82
2022-12-02T01:18:29.528Z,16.05
2022-12-02T01:19:01.407Z,14.73
2022-12-02T01:19:33.255Z,14.95
2022-12-02T01:20:05.602Z,14.23
2022-12-02T01:20:37.531Z,14.48
2022-12-02T01:21:09.937Z,12.77
2022-12-02T01:21:41.867Z,12.27
2022-12-02T01:22:13.729Z,12.27
2022-12-02T01:22:45.589Z,12.73
2022-12-02T01:23:17.848Z,13.02
2022-12-02T01:23:50.060Z,13.30
2022-12-02T01:24:21.942Z,11.93
2022-12-02T01:24:53.981Z,12.60
2022-12-02T01:25:25.939Z,12.40
2022-12-02T01:25:57.800Z,12.52
2022-12-02T01:26:29.629Z,13.85
2022-12-02T01:27:01.489Z,12.05
2022-12-02T01:27:34.077Z,12.35
2022-12-02T01:28:06.403Z,12.50
2022-12-02T01:28:38.299Z,12.23
2022-12-02T01:29:10.482Z,12.45
2022-12-02T01:29:42.385Z,12.75
2022-12-02T01:30:15.181Z,12.50
2022-12-02T01:30:47.832Z,12.25
2022-12-02T01:31:19.922Z,12.55
2022-12-02T01:31:51.879Z,13.23
2022-12-02T01:32:24.658Z,13.05
2022-12-02T01:32:56.535Z,13.73
2022-12-02T01:33:29.164Z,16.42
2022-12-02T01:34:01.022Z,16.58
2022-12-02T01:34:33.217Z,14.05
2022-12-02T01:35:05.471Z,13.55
2022-12-02T01:35:37.359Z,14.70
2022-12-02T01:36:09.363Z,14.40
2022-12-02T01:36:41.218Z,14.77
2022-12-02T01:37:13.443Z,14.10
2022-12-02T01:37:45.908Z,13.95
2022-12-02T01:38:17.756Z,14.00
2022-12-02T01:38:49.636Z,13.38
2022-12-02T01:39:21.505Z,12.77
2022-12-02T01:39:53.696Z,12.57
2022-12-02T01:40:27.156Z,13.18
2022-12-02T01:40:59.663Z,11.80
2022-12-02T01:41:31.563Z,13.18
2022-12-02T01:42:04.397Z,13.18
2022-12-02T01:42:36.587Z,13.00
2022-12-02T01:43:08.664Z,12.45
2022-12-02T01:43:40.565Z,12.20
2022-12-02T01:44:12.449Z,12.25
2022-12-02T01:44:44.432Z,13.07
2022-12-02T01:45:17.036Z,11.93
2022-12-02T01:45:49.184Z,12.05
2022-12-02T01:46:21.344Z,12.20
2022-12-02T01:46:53.367Z,11.40
2022-12-02T01:47:25.952Z,11.52
2022-12-02T01:48:01.125Z,12.20
2022-12-02T01:48:36.152Z,13.07
2022-12-02T02:00:44.859Z,13.05
2022-12-02T02:01:32.116Z,13.57
2022-12-02T02:02:04.190Z,11.65
2022-12-02T02:02:40.332Z,13.75
2022-12-02T02:03:12.200Z,11.63
2022-12-02T02:03:44.122Z,12.98
2022-12-02T02:04:16.245Z,13.32
2022-12-02T02:04:48.454Z,12.80
2022-12-02T02:05:27.189Z,12.10
2022-12-02T02:05:59.318Z,12.50
2022-12-02T02:06:35.298Z,12.20
2022-12-02T02:07:07.793Z,11.85
2022-12-02T02:07:41.295Z,12.55
2022-12-02T02:08:14.504Z,12.90
2022-12-02T02:08:46.627Z,12.90
2022-12-02T02:09:18.638Z,13.77
2022-12-02T02:09:51.355Z,12.70
2022-12-02T02:10:25.524Z,12.93
2022-12-02T02:10:58.462Z,12.15
2022-12-02T02:11:31.093Z,12.35
2022-12-02T02:12:04.810Z,12.30
2022-12-02T02:12:37.357Z,12.52
2022-12-02T02:13:12.300Z,13.20
2022-12-02T02:13:44.444Z,12.95
2022-12-02T02:14:16.270Z,12.55
2022-12-02T02:14:48.398Z,13.07
2022-12-02T02:15:22.011Z,12.30
2022-12-02T02:15:54.181Z,12.98
2022-12-02T02:16:26.346Z,13.35
2022-12-02T02:16:58.454Z,12.25
2022-12-02T02:17:30.890Z,12.95
2022-12-02T02:18:05.332Z,12.63
2022-12-02T02:18:37.790Z,12.80
2022-12-02T02:19:13.446Z,12.70
2022-12-02T02:19:45.324Z,12.77
2022-12-02T02:20:21.447Z,11.63
2022-12-02T02:20:57.451Z,12.55
2022-12-02T02:21:36.188Z,12.68
2022-12-02T02:22:15.016Z,12.93
2022-12-02T02:23:05.682Z,14.18
2022-12-02T02:23:37.711Z,12.27
2022-12-02T02:24:09.893Z,13.05
2022-12-02T02:24:41.907Z,12.25
2022-12-02T02:25:20.081Z,12.23
2022-12-02T02:25:56.711Z,12.32
2022-12-02T02:26:29.782Z,11.63
2022-12-02T02:27:02.929Z,13.30
2022-12-02T02:27:34.847Z,13.38
2022-12-02T02:28:08.131Z,13.98
2022-12-02T02:28:40.385Z,14.27
2022-12-02T02:29:12.474Z,12.32
2022-12-02T02:29:44.605Z,12.13
2022-12-02T02:30:17.466Z,12.50
2022-12-02T02:30:49.491Z,13.10
2022-12-02T02:31:22.786Z,12.05
2022-12-02T02:31:54.916Z,12.80
2022-12-02T02:32:27.158Z,12.80
2022-12-02T02:33:04.968Z,12.15
2022-12-02T02:33:37.704Z,12.95
2022-12-02T02:34:09.758Z,12.07
2022-12-02T02:34:42.440Z,12.18
2022-12-02T02:35:14.924Z,13.07
2022-12-02T02:35:48.185Z,12.75
2022-12-02T02:36:20.061Z,12.37
2022-12-02T02:36:52.140Z,12.95
2022-12-02T02:37:25.223Z,13.25
2022-12-02T02:37:57.540Z,13.68
2022-12-02T02:38:30.908Z,13.27
2022-12-02T02:39:03.953Z,13.48
2022-12-02T02:39:37.090Z,13.02
2022-12-02T02:40:10.961Z,13.45
2022-12-02T02:40:44.062Z,13.88
2022-12-02T02:41:16.115Z,12.88
2022-12-02T02:41:48.035Z,13.62
2022-12-02T02:42:19.981Z,12.82
2022-12-02T02:42:55.202Z,13.13
2022-12-02T02:43:29.706Z,12.93
2022-12-02T02:44:01.906Z,13.18
2022-12-02T02:44:33.999Z,12.95
2022-12-02T02:45:06.387Z,12.88
2022-12-02T02:45:41.671Z,12.90
2022-12-02T02:46:13.949Z,13.25
2022-12-02T02:46:46.360Z,12.80
2022-12-02T02:47:18.395Z,12.90
2022-12-02T02:47:51.023Z,12.23
2022-12-02T02:48:24.061Z,13.00
2022-12-02T02:48:56.371Z,12.52
2022-12-02T02:49:28.359Z,12.25
2022-12-02T02:50:00.316Z,12.68
2022-12-02T02:50:33.654Z,11.02
2022-12-02T02:51:07.712Z,12.50
2022-12-02T02:51:40.163Z,11.57
2022-12-02T02:52:12.394Z,12.02
2022-12-02T02:52:44.422Z,12.88
2022-12-02T02:53:18.586Z,12.20
2022-12-02T02:53:51.053Z,11.93
2022-12-02T02:54:23.518Z,12.48
2022-12-02T02:54:55.459Z,12.57
2022-12-02T02:55:28.442Z,12.70
2022-12-02T02:56:00.445Z,12.35
2022-12-02T02:56:33.647Z,12.85
2022-12-02T02:57:05.577Z,22.10
2022-12-02T02:57:38.695Z,25.73
2022-12-02T02:58:13.566Z,24.90
2022-12-02T02:58:46.288Z,28.48
2022-12-02T02:59:18.321Z,28.50
2022-12-02T02:59:55.533Z,26.30
2022-12-02T03:00:27.806Z,21.90
2022-12-02T03:01:06.579Z,24.15
2022-12-02T03:01:38.777Z,23.98
2022-12-02T03:02:13.432Z,22.13
2022-12-02T03:02:49.611Z,17.83
2022-12-02T03:03:24.287Z,15.45
2022-12-02T03:04:02.808Z,13.48
2022-12-02T03:04:34.832Z,12.43
2022-12-02T03:05:07.923Z,12.15
2022-12-02T03:05:40.982Z,12.32
2022-12-02T03:06:14.177Z,12.37
2022-12-02T03:06:47.927Z,12.50
2022-12-02T03:07:20.409Z,12.27
2022-12-02T03:07:52.856Z,13.20
2022-12-02T03:08:26.854Z,13.48
2022-12-02T03:09:00.816Z,12.77
2022-12-02T03:09:33.474Z,12.90
2022-12-02T03:10:06.462Z,13.10
2022-12-02T03:10:39.318Z,12.10
2022-12-02T03:11:12.203Z,12.45
2022-12-02T03:11:46.651Z,12.30
2022-12-02T03:12:19.140Z,12.07
2022-12-02T03:12:53.680Z,12.68
2022-12-02T03:13:26.306Z,13.05
2022-12-02T03:13:59.381Z,11.30
2022-12-02T03:14:31.311Z,12.37
2022-12-02T03:15:04.639Z,13.15
2022-12-02T03:15:36.909Z,13.90
2022-12-02T03:16:12.960Z,15.23
2022-12-02T03:16:46.503Z,14.35
2022-12-02T03:17:18.542Z,14.57
2022-12-02T03:17:51.217Z,13.85
2022-12-02T03:18:23.461Z,17.73
2022-12-02T03:18:56.846Z,15.27
2022-12-02T03:19:31.986Z,14.75
2022-12-02T03:20:05.453Z,12.95
2022-12-02T03:20:37.351Z,13.57
2022-12-02T03:21:10.002Z,13.75
2022-12-02T03:21:42.322Z,15.30
2022-12-02T03:22:14.267Z,13.88
2022-12-02T03:22:46.137Z,12.68
2022-12-02T03:23:18.343Z,12.48
2022-12-02T03:23:52.454Z,13.02
2022-12-02T03:24:24.655Z,12.57
2022-12-02T03:24:56.576Z,11.93
2022-12-02T03:25:29.386Z,15.38
2022-12-02T03:26:03.037Z,18.58
2022-12-02T03:26:36.162Z,14.23
2022-12-02T03:27:10.202Z,15.23
2022-12-02T03:27:42.206Z,17.98
2022-12-02T03:28:14.342Z,15.75
2022-12-02T03:28:47.607Z,15.32
2022-12-02T03:29:20.459Z,15.27
2022-12-02T03:29:52.506Z,14.43
2022-12-02T03:30:24.737Z,14.40
2022-12-02T03:30:57.006Z,11.90
2022-12-02T03:31:29.345Z,13.50
2022-12-02T03:32:02.505Z,12.45
2022-12-02T03:32:35.506Z,12.25
2022-12-02T03:33:07.969Z,12.57
2022-12-02T03:33:41.465Z,12.07
2022-12-02T03:34:14.225Z,11.88
2022-12-02T03:34:46.159Z,13.00
2022-12-02T03:35:18.130Z,13.25
2022-12-02T03:35:50.138Z,12.70
2022-12-02T03:36:22.881Z,13.52
2022-12-02T03:36:55.181Z,12.13
2022-12-02T03:37:27.608Z,12.20
2022-12-02T03:37:59.530Z,13.07
2022-12-02T03:38:33.046Z,12.93
2022-12-02T03:39:05.955Z,12.18
2022-12-02T03:39:38.539Z,11.48
2022-12-02T03:40:11.155Z,12.75
2022-12-02T03:40:43.147Z,12.82
2022-12-02T03:41:15.510Z,13.13
2022-12-02T03:41:47.672Z,12.27
2022-12-02T03:42:20.450Z,14.50
2022-12-02T03:42:52.709Z,12.98
2022-12-02T03:43:24.817Z,12.98
2022-12-02T03:43:58.323Z,15.25
2022-12-02T03:44:30.325Z,13.55
2022-12-02T03:45:02.921Z,15.75
2022-12-02T03:45:35.733Z,18.00
2022-12-02T03:46:08.688Z,19.00
2022-12-02T03:46:40.998Z,17.50
2022-12-02T03:47:13.286Z,17.10
2022-12-02T03:47:45.379Z,14.77
2022-12-02T03:48:22.198Z,15.32
2022-12-02T03:48:55.214Z,17.08
2022-12-02T03:49:27.335Z,15.43
2022-12-02T03:49:59.680Z,16.85
2022-12-02T03:50:31.883Z,14.13
2022-12-02T03:51:03.847Z,14.32
2022-12-02T03:51:35.954Z,12.95
2022-12-02T03:52:07.989Z,13.15
2022-12-02T03:52:40.860Z,12.65
2022-12-02T03:53:12.922Z,12.43
2022-12-02T03:53:45.624Z,12.70
2022-12-02T03:54:17.812Z,13.02
2022-12-02T03:54:54.869Z,13.00
2022-12-02T03:55:27.317Z,11.50
2022-12-02T03:56:05.758Z,12.95
2022-12-02T03:56:42.528Z,14.15
2022-12-02T03:57:14.408Z,12.05
2022-12-02T03:57:46.286Z,12.60
2022-12-02T03:58:18.107Z,12.68
2022-12-02T03:58:52.552Z,13.48
2022-12-02T03:59:28.158Z,12.88
2022-12-02T04:00:00.350Z,11.85
2022-12-02T04:00:32.496Z,12.20
2022-12-02T04:01:05.660Z,11.52
2022-12-02T04:01:37.586Z,12.93
2022-12-02T04:02:09.656Z,13.48
2022-12-02T04:02:41.603Z,12.70
2022-12-02T04:03:13.559Z,12.48
2022-12-02T04:03:45.529Z,12.50
2022-12-02T04:04:17.436Z,12.37
2022-12-02T04:04:49.660Z,12.50
2022-12-02T04:05:21.758Z,13.48
2022-12-02T04:05:53.670Z,12.75
2022-12-02T04:06:26.105Z,12.07
2022-12-02T04:06:58.855Z,13.55
2022-12-02T04:07:30.750Z,12.93
2022-12-02T04:08:02.725Z,12.10
2022-12-02T04:08:34.787Z,13.18
2022-12-02T04:09:06.632Z,12.98
2022-12-02T04:09:38.473Z,13.13
2022-12-02T04:10:10.844Z,13.07
2022-12-02T04:10:42.680Z,13.45
2022-12-02T04:11:14.557Z,11.73
2022-12-02T04:11:46.829Z,13.00
2022-12-02T04:12:18.702Z,13.07
2022-12-02T04:12:50.576Z,12.77
2022-12-02T04:13:22.413Z,12.73
2022-12-02T04:13:54.280Z,13.35
2022-12-02T04:14:26.215Z,13.02
2022-12-02T04:14:58.077Z,12.27
2022-12-02T04:15:30.190Z,13.15
2022-12-02T04:16:02.206Z,12.70
2022-12-02T04:16:34.094Z,12.43
2022-12-02T04:17:08.306Z,12.70
2022-12-02T04:17:40.438Z,13.18
2022-12-02T04:18:12.273Z,12.37
2022-12-02T04:18:44.229Z,12.57
2022-12-02T04:19:16.088Z,12.93
2022-12-02T04:19:49.056Z,12.82
2022-12-02T04:20:20.911Z,12.02
2022-12-02T04:20:52.791Z,14.07
2022-12-02T04:21:27.490Z,12.40
2022-12-02T04:21:59.372Z,12.35
2022-12-02T04:22:31.873Z,13.30
2022-12-02T04:23:03.716Z,12.13
2022-12-02T04:23:35.608Z,14.25
2022-12-02T04:24:07.868Z,18.60
2022-12-02T04:24:39.697Z,19.20
2022-12-02T04:25:11.554Z,16.08
2022-12-02T04:25:43.868Z,15.55
2022-12-02T04:26:15.965Z,18.67
2022-12-02T04:26:47.787Z,29.00
2022-12-02T04:27:19.633Z,26.73
2022-12-02T04:27:51.849Z,25.73
2022-12-02T04:28:23.703Z,22.58
2022-12-02T04:28:55.539Z,19.77
2022-12-02T04:29:27.445Z,19.52
2022-12-02T04:29:59.269Z,18.55
2022-12-02T04:30:31.172Z,16.75
2022-12-02T04:31:03.112Z,15.82
2022-12-02T04:31:35.045Z,18.75
2022-12-02T04:32:06.938Z,18.17
2022-12-02T04:32:38.812Z,16.23
2022-12-02T04:33:11.035Z,15.27
2022-12-02T04:33:42.917Z,13.98
2022-12-02T04:34:14.874Z,14.32
2022-12-02T04:34:46.783Z,12.50
2022-12-02T04:35:18.717Z,12.43
2022-12-02T04:35:50.765Z,13.13
2022-12-02T04:36:22.591Z,12.82
2022-12-02T04:36:54.489Z,12.50
2022-12-02T04:37:26.311Z,13.77
2022-12-02T04:37:58.387Z,13.25
2022-12-02T04:38:30.592Z,12.93
2022-12-02T04:39:02.570Z,13.15
2022-12-02T04:39:34.459Z,15.05
2022-12-02T04:40:07.175Z,14.25
2022-12-02T04:40:38.964Z,14.45
2022-12-02T04:41:10.746Z,11.48
2022-12-02T04:41:42.575Z,12.80
2022-12-02T04:42:14.402Z,11.90
2022-12-02T04:42:46.302Z,12.52
2022-12-02T04:43:18.243Z,13.13
2022-12-02T04:43:50.360Z,12.07
2022-12-02T04:44:22.231Z,11.93
2022-12-02T04:44:54.105Z,13.10
2022-12-02T04:45:25.978Z,12.80
2022-12-02T04:45:57.831Z,12.90
2022-12-02T04:46:29.841Z,12.40
2022-12-02T04:47:01.998Z,11.70
2022-12-02T04:47:33.834Z,12.40
2022-12-02T04:48:06.017Z,11.98
2022-12-02T04:48:37.848Z,18.05
2022-12-02T04:49:09.963Z,24.02
2022-12-02T04:49:41.791Z,19.75
2022-12-02T04:50:13.678Z,16.05
2022-12-02T04:50:45.499Z,14.80
2022-12-02T04:51:17.342Z,12.73
2022-12-02T04:51:49.162Z,15.32
2022-12-02T04:52:21.037Z,12.65
2022-12-02T04:52:53.468Z,12.75
2022-12-02T04:53:25.380Z,12.63
2022-12-02T04:53:57.238Z,13.07
2022-12-02T04:54:29.400Z,14.73
2022-12-02T04:55:01.239Z,15.00
2022-12-02T04:55:33.108Z,13.50
2022-12-02T04:56:05.261Z,13.30
2022-12-02T04:56:37.247Z,13.90
2022-12-02T04:57:09.071Z,15.23
2022-12-02T04:57:40.987Z,17.00
2022-12-02T04:58:13.492Z,15.98
2022-12-02T04:58:45.336Z,13.95
2022-12-02T04:59:17.747Z,13.30
2022-12-02T04:59:50.040Z,12.60
2022-12-02T05:00:22.071Z,13.77
2022-12-02T05:00:54.112Z,14.48
2022-12-02T05:01:25.964Z,12.18
2022-12-02T05:01:58.292Z,12.65
2022-12-02T05:02:30.276Z,12.63
2022-12-02T05:03:02.205Z,12.70
2022-12-02T05:03:34.108Z,13.20
2022-12-02T05:04:05.998Z,13.20
2022-12-02T05:04:40.359Z,13.57
2022-12-02T05:05:12.839Z,12.98
2022-12-02T05:05:44.691Z,12.27
2022-12-02T05:06:16.710Z,12.80
2022-12-02T05:06:48.586Z,12.95
2022-12-02T05:07:20.521Z,12.90
2022-12-02T05:07:52.436Z,13.13
2022-12-02T05:08:24.337Z,12.25
2022-12-02T05:08:56.181Z,12.70
2022-12-02T05:09:28.052Z,12.95
2022-12-02T05:09:59.954Z,12.68
2022-12-02T05:10:32.112Z,12.55
2022-12-02T05:11:04.058Z,13.38
2022-12-02T05:11:36.651Z,12.95
2022-12-02T05:12:08.712Z,12.35
2022-12-02T05:12:40.556Z,12.65
2022-12-02T05:13:12.368Z,13.18
2022-12-02T05:13:44.215Z,13.02
2022-12-02T05:14:16.053Z,13.15
2022-12-02T05:14:47.933Z,13.10
2022-12-02T05:15:22.629Z,13.00
2022-12-02T05:15:54.893Z,13.00
2022-12-02T05:16:26.842Z,12.93
2022-12-02T05:16:58.725Z,13.25
2022-12-02T05:17:31.040Z,13.52
2022-12-02T05:18:03.534Z,12.40
2022-12-02T05:18:35.438Z,13.55
2022-12-02T05:19:07.301Z,13.18
2022-12-02T05:19:39.140Z,13.85
2022-12-02T05:20:11.851Z,13.13
2022-12-02T05:20:43.683Z,13.38
2022-12-02T05:21:15.863Z,13.95
2022-12-02T05:21:47.755Z,13.10
2022-12-02T05:22:19.587Z,14.05
2022-12-02T05:22:51.773Z,13.15
2022-12-02T05:23:23.619Z,12.10
2022-12-02T05:23:55.457Z,12.63
2022-12-02T05:24:27.468Z,13.73
2022-12-02T05:24:59.403Z,12.93
2022-12-02T05:25:31.234Z,13.35
2022-12-02T05:26:03.214Z,13.18
2022-12-02T05:26:35.515Z,14.98
2022-12-02T05:27:07.437Z,13.68
2022-12-02T05:27:39.356Z,13.70
2022-12-02T05:28:11.187Z,12.52
2022-12-02T05:28:42.999Z,13.45
2022-12-02T05:29:14.839Z,12.48
2022-12-02T05:29:46.912Z,13.38
2022-12-02T05:30:18.812Z,13.50
2022-12-02T05:30:50.624Z,13.18
2022-12-02T05:31:22.504Z,12.82
2022-12-02T05:31:54.831Z,14.10
2022-12-02T05:32:26.871Z,14.73
2022-12-02T05:32:58.690Z,15.80
2022-12-02T05:33:30.630Z,17.98
2022-12-02T05:34:02.479Z,18.27
2022-12-02T05:34:34.374Z,18.37
2022-12-02T05:35:06.452Z,19.60
2022-12-02T05:35:38.322Z,19.12
2022-12-02T05:36:13.300Z,15.73
2022-12-02T05:36:45.174Z,17.55
2022-12-02T05:37:17.536Z,18.05
2022-12-02T05:37:49.499Z,17.42
2022-12-02T05:38:21.390Z,21.12
2022-12-02T05:38:53.353Z,23.27
2022-12-02T05:39:25.193Z,18.17
2022-12-02T05:39:58.756Z,26.55
2022-12-02T05:40:30.740Z,22.08
2022-12-02T05:41:02.582Z,17.20
2022-12-02T05:41:34.558Z,16.15
2022-12-02T05:42:08.824Z,16.67
2022-12-02T05:42:41.772Z,16.58
2022-12-02T05:43:19.517Z,16.42
2022-12-02T05:43:51.552Z,14.95
2022-12-02T05:44:25.904Z,16.77
2022-12-02T05:45:06.084Z,22.58
2022-12-02T05:45:38.250Z,48.35
2022-12-02T05:46:16.015Z,47.58
2022-12-02T05:46:48.768Z,51.33
2022-12-02T05:47:22.003Z,47.97
2022-12-02T05:47:54.967Z,34.03
2022-12-02T05:48:35.468Z,23.70
2022-12-02T05:49:17.967Z,18.20
2022-12-02T05:49:49.807Z,20.77
2022-12-02T05:50:23.467Z,25.05
2022-12-02T05:50:56.118Z,23.62
2022-12-02T05:51:27.978Z,20.62
2022-12-02T05:52:02.065Z,20.77
2022-12-02T05:52:34.039Z,19.67
2022-12-02T05:53:07.371Z,23.90
2022-12-02T05:53:43.294Z,21.98
2022-12-02T05:54:19.588Z,21.15
2022-12-02T05:54:53.797Z,20.48
2022-12-02T05:55:25.836Z,15.80
2022-12-02T05:56:00.288Z,16.25
2022-12-02T05:56:32.376Z,15.80
2022-12-02T05:57:07.040Z,14.48
2022-12-02T05:57:39.002Z,13.40
2022-12-02T05:58:13.884Z,13.25
2022-12-02T05:58:45.774Z,13.18
2022-12-02T05:59:19.987Z,13.13
2022-12-02T05:59:58.405Z,13.88
2022-12-02T06:00:31.058Z,14.48
2022-12-02T06:01:26.299Z,20.58
2022-12-02T06:01:59.360Z,15.05
2022-12-02T06:02:40.696Z,14.95
2022-12-02T06:03:19.604Z,12.95
2022-12-02T06:03:51.559Z,13.60
2022-12-02T06:04:31.821Z,13.93
2022-12-02T06:05:17.992Z,13.93
2022-12-02T06:05:51.032Z,12.60
2022-12-02T06:06:28.221Z,13.32
2022-12-02T06:07:02.489Z,13.40
2022-12-02T06:07:34.443Z,13.02
2022-12-02T06:08:22.166Z,14.32
2022-12-02T06:08:55.562Z,12.57
2022-12-02T06:09:33.402Z,12.20
2022-12-02T06:10:31.894Z,13.10
2022-12-02T06:11:21.785Z,12.20
2022-12-02T06:11:54.600Z,12.25
2022-12-02T06:12:26.395Z,12.18
2022-12-02T06:13:02.276Z,12.98
2022-12-02T06:13:38.279Z,13.25
2022-12-02T06:14:19.610Z,13.55
2022-12-02T06:14:54.368Z,13.50
2022-12-02T06:15:32.787Z,12.98
2022-12-02T06:16:18.409Z,13.02
2022-12-02T06:17:00.862Z,12.57
2022-12-02T06:17:34.252Z,12.98
2022-12-02T06:18:17.723Z,13.73
2022-12-02T06:18:49.644Z,14.23
2022-12-02T06:19:35.813Z,14.10
2022-12-02T06:20:26.980Z,13.27
2022-12-02T06:21:02.944Z,12.05
2022-12-02T06:21:34.910Z,13.20
2022-12-02T06:22:32.392Z,13.60
2022-12-02T06:23:04.612Z,12.80
2022-12-02T06:23:41.815Z,13.43
2022-12-02T06:24:13.772Z,13.50
2022-12-02T06:24:46.205Z,13.80
2022-12-02T06:25:29.740Z,14.20
2022-12-02T06:26:01.744Z,12.85
2022-12-02T06:26:33.652Z,15.20
2022-12-02T06:27:05.490Z,14.20
2022-12-02T06:27:37.353Z,13.98
2022-12-02T06:28:50.627Z,13.05
2022-12-02T06:29:22.689Z,12.80
2022-12-02T06:30:01.922Z,14.38
2022-12-02T06:30:34.778Z,12.32
2022-12-02T06:31:23.890Z,14.00
2022-12-02T06:31:57.150Z,13.98
2022-12-02T06:32:37.846Z,13.15
2022-12-02T06:33:31.759Z,13.62
2022-12-02T06:34:20.698Z,13.98
2022-12-02T06:34:53.364Z,15.07
2022-12-02T06:35:33.259Z,13.77
2022-12-02T06:36:12.007Z,14.00
2022-12-02T06:36:43.887Z,14.68
2022-12-02T06:37:38.893Z,15.13
2022-12-02T06:38:43.805Z,14.98
2022-12-02T06:39:21.983Z,13.77
2022-12-02T06:40:52.356Z,14.45
2022-12-02T06:41:27.085Z,13.60
2022-12-02T06:42:08.647Z,14.38
2022-12-02T06:42:40.567Z,13.25
2022-12-02T06:43:22.956Z,14.80
2022-12-02T06:44:19.234Z,15.25
2022-12-02T06:45:08.029Z,15.63
2022-12-02T06:45:39.921Z,13.73
2022-12-02T06:46:20.401Z,13.95
2022-12-02T06:46:52.335Z,14.57
2022-12-02T06:47:32.987Z,14.98
2022-12-02T06:48:13.850Z,14.20
2022-12-02T06:48:46.020Z,15.60
2022-12-02T06:49:23.549Z,14.98
2022-12-02T06:49:55.393Z,15.00
2022-12-02T06:50:40.561Z,14.38
2022-12-02T06:51:19.897Z,12.30
2022-12-02T06:52:15.861Z,14.38
2022-12-02T06:52:48.053Z,12.32
2022-12-02T06:53:33.029Z,9.38
2022-12-02T06:54:13.943Z,9.70
2022-12-02T06:54:46.496Z,16.17
2022-12-02T06:55:30.430Z,19.00
2022-12-02T06:56:20.958Z,14.65
2022-12-02T06:56:57.085Z,13.73
2022-12-02T06:57:31.609Z,13.82
2022-12-02T06:58:21.652Z,13.60
2022-12-02T06:58:53.439Z,15.93
2022-12-02T06:59:26.081Z,15.60
2022-12-02T06:59:58.034Z,16.55
2022-12-02T07:00:32.346Z,16.23
2022-12-02T07:01:15.741Z,16.75
2022-12-02T07:01:47.974Z,17.48
2022-12-02T07:02:31.763Z,17.00
2022-12-02T07:03:05.472Z,15.65
2022-12-02T07:03:42.891Z,16.30
2022-12-02T07:04:30.148Z,15.73
2022-12-02T07:05:02.342Z,13.73
2022-12-02T07:05:34.206Z,15.27
2022-12-02T07:06:25.225Z,14.15
2022-12-02T07:07:02.821Z,15.25
2022-12-02T07:07:36.413Z,15.25
2022-12-02T07:08:08.414Z,15.55
2022-12-02T07:08:40.328Z,16.02
2022-12-02T07:09:21.176Z,16.48
2022-12-02T07:10:30.756Z,15.05
2022-12-02T07:11:02.644Z,13.70
2022-12-02T07:11:51.665Z,14.25
2022-12-02T07:12:28.880Z,14.73
2022-12-02T07:13:08.335Z,14.73
2022-12-02T07:13:40.194Z,14.32
2022-12-02T07:14:37.779Z,14.68
2022-12-02T07:15:09.586Z,13.32
2022-12-02T07:15:42.516Z,14.07
2022-12-02T07:16:33.456Z,14.20
2022-12-02T07:17:14.083Z,15.25
2022-12-02T07:17:45.926Z,14.90
2022-12-02T07:18:21.603Z,15.25
2022-12-02T07:18:53.500Z,14.40
2022-12-02T07:19:46.984Z,14.93
2022-12-02T07:20:27.943Z,14.13
2022-12-02T07:21:00.085Z,15.15
2022-12-02T07:21:31.946Z,14.73
2022-12-02T07:22:14.371Z,14.57
2022-12-02T07:22:49.035Z,14.85
2022-12-02T07:23:26.471Z,13.77
2022-12-02T07:23:58.412Z,13.98
2022-12-02T07:24:30.259Z,13.60
2022-12-02T07:25:15.898Z,15.02
2022-12-02T07:25:51.396Z,14.35
2022-12-02T07:26:24.400Z,14.50
2022-12-02T07:26:58.770Z,13.65
2022-12-02T07:27:37.738Z,13.52
2022-12-02T07:28:19.046Z,14.38
2022-12-02T07:28:59.201Z,12.95
2022-12-02T07:29:43.933Z,13.85
2022-12-02T07:30:41.433Z,13.62
2022-12-02T07:31:22.687Z,14.43
2022-12-02T07:31:54.905Z,14.25
2022-12-02T07:32:27.184Z,13.98
2022-12-02T07:33:00.154Z,14.57
2022-12-02T07:33:32.031Z,14.55
2022-12-02T07:34:03.903Z,14.65
2022-12-02T07:34:35.744Z,15.73
2022-12-02T07:35:07.889Z,14.68
2022-12-02T07:35:39.841Z,14.95
2022-12-02T07:36:11.732Z,12.85
2022-12-02T07:36:43.814Z,13.15
2022-12-02T07:37:16.150Z,11.95
2022-12-02T07:37:48.081Z,17.52
2022-12-02T07:38:36.425Z,14.85
2022-12-02T07:39:12.868Z,10.95
2022-12-02T07:39:45.666Z,15.05
2022-12-02T07:40:18.948Z,13.48
2022-12-02T07:40:50.775Z,14.07
2022-12-02T07:41:22.621Z,13.77
2022-12-02T07:41:54.410Z,13.30
2022-12-02T07:42:26.567Z,15.18
2022-12-02T07:42:58.515Z,13.73
2022-12-02T07:43:31.277Z,14.65
2022-12-02T07:44:03.411Z,14.87
2022-12-02T07:44:35.409Z,15.43
2022-12-02T07:45:07.857Z,13.40
2022-12-02T07:45:39.774Z,15.07
2022-12-02T07:46:11.767Z,15.60
2022-12-02T07:46:43.616Z,14.95
2022-12-02T07:47:15.605Z,15.85
2022-12-02T07:47:47.983Z,16.15
2022-12-02T07:48:19.823Z,15.30
2022-12-02T07:48:57.012Z,15.75
2022-12-02T07:49:29.348Z,15.00
2022-12-02T07:50:01.188Z,14.70
2022-12-02T07:50:33.153Z,15.18
2022-12-02T07:51:06.200Z,15.35
2022-12-02T07:51:38.068Z,14.02
2022-12-02T07:52:10.004Z,15.93
2022-12-02T07:52:41.824Z,14.82
2022-12-02T07:53:14.023Z,15.25
2022-12-02T07:53:45.859Z,14.00
2022-12-02T07:54:17.770Z,14.32
2022-12-02T07:54:50.067Z,15.57
2022-12-02T07:55:26.326Z,14.70
2022-12-02T07:55:58.653Z,15.45
2022-12-02T07:56:30.473Z,15.43
2022-12-02T07:57:02.375Z,14.27
2022-12-02T07:57:34.688Z,14.70
2022-12-02T07:58:07.332Z,14.95
2022-12-02T07:59:10.214Z,14.73
2022-12-02T07:59:31.428Z,14.60
2022-12-02T08:00:06.055Z,12.02
2022-12-02T08:00:44.009Z,14.57
2022-12-02T08:01:19.754Z,16.23
2022-12-02T08:01:52.140Z,15.52
2022-12-02T08:02:24.168Z,16.20
2022-12-02T08:02:56.363Z,14.90
2022-12-02T08:03:28.222Z,15.05
2022-12-02T08:04:00.269Z,15.27
2022-12-02T08:04:32.172Z,15.38
2022-12-02T08:05:04.887Z,12.65
2022-12-02T08:05:36.787Z,13.80
2022-12-02T08:06:08.626Z,15.13
2022-12-02T08:06:40.797Z,15.60
2022-12-02T08:07:12.691Z,15.43
2022-12-02T08:07:44.569Z,15.35
2022-12-02T08:08:16.460Z,14.40
2022-12-02T08:08:48.287Z,13.88
2022-12-02T08:09:20.167Z,14.63
2022-12-02T08:09:51.989Z,13.35
2022-12-02T08:10:24.156Z,13.27
2022-12-02T08:10:56.026Z,14.50
2022-12-02T08:11:27.861Z,15.57
2022-12-02T08:11:59.972Z,14.00
2022-12-02T08:12:31.810Z,13.07
2022-12-02T08:13:03.684Z,13.90
2022-12-02T08:13:35.669Z,15.00
2022-12-02T08:14:07.532Z,13.95
2022-12-02T08:14:39.373Z,15.07
2022-12-02T08:15:12.881Z,13.95
2022-12-02T08:15:46.741Z,14.55
2022-12-02T08:16:20.563Z,13.73
2022-12-02T08:16:52.603Z,15.63
2022-12-02T08:17:25.122Z,15.20
2022-12-02T08:17:56.966Z,14.60
2022-12-02T08:18:28.807Z,14.10
2022-12-02T08:19:01.281Z,14.68
2022-12-02T08:19:33.180Z,14.32
2022-12-02T08:20:07.610Z,14.55
2022-12-02T08:20:39.972Z,14.63
2022-12-02T08:21:11.857Z,11.23
2022-12-02T08:21:43.838Z,13.80
2022-12-02T08:22:15.859Z,15.63
2022-12-02T08:22:48.045Z,15.27
2022-12-02T08:23:19.879Z,14.90
2022-12-02T08:23:51.803Z,14.65
2022-12-02T08:24:23.651Z,14.23
2022-12-02T08:24:55.627Z,13.57
2022-12-02T08:25:27.500Z,14.30
2022-12-02T08:25:59.398Z,14.45
2022-12-02T08:26:31.257Z,14.70
2022-12-02T08:27:03.139Z,15.25
2022-12-02T08:27:35.082Z,14.77
2022-12-02T08:28:07.294Z,15.38
2022-12-02T08:28:39.098Z,15.32
2022-12-02T08:29:11.117Z,14.00
2022-12-02T08:29:43.608Z,15.55
2022-12-02T08:30:17.454Z,14.25
2022-12-02T08:30:49.401Z,13.93
2022-12-02T08:31:21.785Z,14.80
2022-12-02T08:31:53.761Z,14.65
2022-12-02T08:32:25.632Z,13.85
2022-12-02T08:32:57.510Z,14.02
2022-12-02T08:33:29.773Z,14.23
2022-12-02T08:34:06.785Z,15.90
2022-12-02T08:34:39.241Z,15.02
2022-12-02T08:35:12.839Z,14.75
2022-12-02T08:35:44.859Z,15.00
2022-12-02T08:36:16.851Z,15.05
2022-12-02T08:36:48.886Z,13.95
2022-12-02T08:37:20.935Z,14.70
2022-12-02T08:37:52.930Z,14.25
2022-12-02T08:38:24.761Z,15.32
2022-12-02T08:38:56.931Z,14.27
2022-12-02T08:39:28.798Z,15.07
2022-12-02T08:40:00.678Z,14.43
2022-12-02T08:40:33.787Z,14.52
2022-12-02T08:41:10.645Z,14.43
2022-12-02T08:41:45.412Z,13.70
2022-12-02T08:42:17.432Z,14.48
2022-12-02T08:42:49.297Z,14.18
2022-12-02T08:43:21.227Z,14.93
2022-12-02T08:43:53.122Z,13.70
2022-12-02T08:44:25.332Z,14.32
2022-12-02T08:44:57.167Z,14.48
2022-12-02T08:45:29.905Z,15.57
2022-12-02T08:46:01.828Z,14.93
2022-12-02T08:46:34.290Z,14.73
2022-12-02T08:47:06.230Z,15.18
2022-12-02T08:47:38.134Z,16.30